createdAt,value
2023-05-09T00:00:15.371Z,11.22
2023-05-09T00:03:20.870Z,11.15
2023-05-09T00:06:26.196Z,11.19
2023-05-09T00:09:31.761Z,11.10
2023-05-09T00:12:37.580Z,11.19
2023-05-09T00:15:43.587Z,11.22
2023-05-09T00:18:43.902Z,11.17
2023-05-09T00:21:30.611Z,11.19
2023-05-09T00:24:22.590Z,11.19
2023-05-09T00:27:15.334Z,11.18
2023-05-09T00:30:36.476Z,11.07
2023-05-09T00:33:42.648Z,11.06
2023-05-09T00:36:49.247Z,11.06
2023-05-09T00:39:54.806Z,11.08
2023-05-09T00:43:00.414Z,11.10
2023-05-09T00:46:06.231Z,11.05
2023-05-09T00:49:12.071Z,11.22
2023-05-09T00:52:17.964Z,11.09
2023-05-09T00:55:23.764Z,11.03
2023-05-09T00:58:29.703Z,11.02
2023-05-09T01:01:34.892Z,11.02
2023-05-09T01:04:42.357Z,11.12
2023-05-09T01:08:05.841Z,11.12
2023-05-09T01:11:21.676Z,11.11
2023-05-09T01:14:49.197Z,11.14
2023-05-09T01:18:15.726Z,11.06
2023-05-09T01:21:24.482Z,10.99
2023-05-09T01:25:12.204Z,11.21
2023-05-09T01:28:38.625Z,11.21
2023-05-09T01:31:43.813Z,11.15
2023-05-09T01:34:50.829Z,11.10
2023-05-09T01:37:58.413Z,11.10
2023-05-09T01:41:07.046Z,11.08
2023-05-09T01:44:12.182Z,11.13
2023-05-09T01:47:18.464Z,11.18
2023-05-09T01:50:26.023Z,11.03
2023-05-09T01:53:30.890Z,11.04
2023-05-09T01:56:36.327Z,11.10
2023-05-09T01:59:35.817Z,11.14
2023-05-09T02:02:22.093Z,11.17
2023-05-09T02:05:18.200Z,11.06
2023-05-09T02:08:05.125Z,10.90
2023-05-09T02:10:58.525Z,10.86
2023-05-09T02:13:43.578Z,10.91
2023-05-09T02:16:37.243Z,10.96
2023-05-09T02:19:23.990Z,10.85
2023-05-09T02:22:17.267Z,10.91
2023-05-09T02:25:12.007Z,10.85
2023-05-09T02:28:17.369Z,10.86
2023-05-09T02:31:23.701Z,10.84
2023-05-09T02:34:30.154Z,10.91
2023-05-09T02:37:35.587Z,10.87
2023-05-09T02:40:42.001Z,10.83
2023-05-09T02:43:49.021Z,10.81
2023-05-09T02:46:55.368Z,10.73
2023-05-09T02:50:01.028Z,10.65
2023-05-09T02:53:06.536Z,10.65
2023-05-09T02:56:13.238Z,10.71
2023-05-09T02:59:19.335Z,10.84
2023-05-09T03:02:25.060Z,10.63
2023-05-09T03:05:30.008Z,10.68
2023-05-09T03:08:35.974Z,10.74
2023-05-09T03:11:43.636Z,10.71
2023-05-09T03:14:49.411Z,10.78
2023-05-09T03:17:55.861Z,10.81
2023-05-09T03:21:01.807Z,10.84
2023-05-09T03:24:07.513Z,10.87
2023-05-09T03:27:13.327Z,10.72
2023-05-09T03:30:20.265Z,10.80
2023-05-09T03:33:25.981Z,10.85
2023-05-09T03:36:32.388Z,10.85
2023-05-09T03:39:38.412Z,10.97
2023-05-09T03:42:36.836Z,11.07
2023-05-09T03:45:36.360Z,11.10
2023-05-09T03:48:43.139Z,11.12
2023-05-09T03:51:48.794Z,11.33
2023-05-09T03:54:54.927Z,11.40
2023-05-09T03:58:02.663Z,11.39
2023-05-09T04:01:08.916Z,11.34
2023-05-09T04:04:14.763Z,11.45
2023-05-09T04:07:20.594Z,11.65
2023-05-09T04:10:26.503Z,11.62
2023-05-09T04:13:35.397Z,11.69
2023-05-09T04:16:43.441Z,11.83
2023-05-09T04:19:48.364Z,11.97
2023-05-09T04:22:55.179Z,12.11
2023-05-09T04:26:03.543Z,12.11
2023-05-09T04:29:09.316Z,12.15
2023-05-09T04:32:17.086Z,12.09
2023-05-09T04:35:23.583Z,12.32
2023-05-09T04:38:28.700Z,12.31
2023-05-09T04:41:36.861Z,12.32
2023-05-09T04:44:43.239Z,12.31
2023-05-09T04:47:47.893Z,12.31
2023-05-09T04:50:55.090Z,12.42
2023-05-09T04:54:01.628Z,12.46
2023-05-09T04:57:17.287Z,12.46
2023-05-09T05:00:17.740Z,12.58
2023-05-09T05:03:25.433Z,12.60
2023-05-09T05:06:31.277Z,12.74
2023-05-09T05:09:37.271Z,12.94
2023-05-09T05:12:44.499Z,13.17
2023-05-09T05:15:51.401Z,13.24
2023-05-09T05:18:57.220Z,13.57
2023-05-09T05:22:06.806Z,13.78
2023-05-09T05:25:05.599Z,13.81
2023-05-09T05:28:11.703Z,13.78
2023-05-09T05:31:17.393Z,13.84
2023-05-09T05:34:26.554Z,13.95
2023-05-09T05:37:33.145Z,14.10
2023-05-09T05:40:38.655Z,14.32
2023-05-09T05:43:45.154Z,14.49
2023-05-09T05:46:51.078Z,14.50
2023-05-09T05:49:58.920Z,14.57
2023-05-09T05:53:05.826Z,14.69
2023-05-09T05:56:11.225Z,14.87
2023-05-09T05:59:17.774Z,14.95
2023-05-09T06:02:24.061Z,15.03
2023-05-09T06:05:30.089Z,14.99
2023-05-09T06:08:36.651Z,15.04
2023-05-09T06:11:42.304Z,14.83
2023-05-09T06:14:47.822Z,14.90
2023-05-09T06:17:47.640Z,15.06
2023-05-09T06:20:43.032Z,15.26
2023-05-09T06:24:05.866Z,15.30
2023-05-09T06:26:54.570Z,15.29
2023-05-09T06:30:01.406Z,15.38
2023-05-09T06:33:07.899Z,15.51
2023-05-09T06:36:14.407Z,15.52
2023-05-09T06:39:19.324Z,15.60
2023-05-09T06:42:26.585Z,15.64
2023-05-09T06:45:32.462Z,15.91
2023-05-09T06:48:30.930Z,15.96
2023-05-09T06:51:23.921Z,16.17
2023-05-09T06:54:29.367Z,16.26
2023-05-09T06:57:35.269Z,16.17
2023-05-09T07:00:33.996Z,16.08
2023-05-09T07:03:39.526Z,15.95
2023-05-09T07:06:44.843Z,16.17
2023-05-09T07:09:52.891Z,16.37
2023-05-09T07:12:58.049Z,16.61
2023-05-09T07:16:06.408Z,16.65
2023-05-09T07:19:14.248Z,16.91
2023-05-09T07:22:20.657Z,16.99
2023-05-09T07:25:25.900Z,17.00
2023-05-09T07:28:32.341Z,16.79
2023-05-09T07:31:38.254Z,16.86
2023-05-09T07:34:43.981Z,16.90
2023-05-09T07:37:49.506Z,17.24
2023-05-09T07:40:56.085Z,16.87
2023-05-09T07:44:02.836Z,17.01
2023-05-09T07:47:09.839Z,17.33
2023-05-09T07:50:16.560Z,17.30
2023-05-09T07:53:22.366Z,17.42
2023-05-09T07:56:28.237Z,17.25
2023-05-09T07:59:33.674Z,17.46
2023-05-09T08:02:38.912Z,17.32
2023-05-09T08:05:45.652Z,17.22
2023-05-09T08:08:52.280Z,17.31
2023-05-09T08:11:58.667Z,17.24
2023-05-09T08:15:04.486Z,17.39
2023-05-09T08:18:10.896Z,17.26
2023-05-09T08:21:16.909Z,17.66
2023-05-09T08:24:25.355Z,17.87
2023-05-09T08:27:32.403Z,17.79
2023-05-09T08:30:38.373Z,17.94
2023-05-09T08:33:43.564Z,18.05
2023-05-09T08:36:48.547Z,18.01
2023-05-09T08:39:55.718Z,17.85
2023-05-09T08:43:01.648Z,17.59
2023-05-09T08:46:09.666Z,17.34
2023-05-09T08:49:16.108Z,16.84
2023-05-09T08:52:15.716Z,16.87
2023-05-09T08:55:20.434Z,16.62
2023-05-09T08:58:26.896Z,16.30
2023-05-09T09:01:36.522Z,16.57
2023-05-09T09:04:42.096Z,14.80
2023-05-09T09:07:51.424Z,14.88
2023-05-09T09:10:57.224Z,15.49
2023-05-09T09:14:02.995Z,15.58
2023-05-09T09:17:09.993Z,15.23
2023-05-09T09:20:17.771Z,15.08
2023-05-09T09:23:24.204Z,14.59
2023-05-09T09:26:29.550Z,14.31
2023-05-09T09:29:36.038Z,14.25
2023-05-09T09:32:49.463Z,14.41
2023-05-09T09:35:55.881Z,14.57
2023-05-09T09:39:01.672Z,14.76
2023-05-09T09:42:08.442Z,15.00
2023-05-09T09:45:23.746Z,15.17
2023-05-09T09:48:22.622Z,15.44
2023-05-09T09:51:25.020Z,15.59
2023-05-09T09:54:30.433Z,15.04
2023-05-09T09:57:55.003Z,15.23
2023-05-09T10:00:59.893Z,15.15
2023-05-09T10:04:05.427Z,15.11
2023-05-09T10:07:15.069Z,15.15
2023-05-09T10:10:21.741Z,15.31
2023-05-09T10:13:27.256Z,15.34
2023-05-09T10:16:43.717Z,15.34
2023-05-09T10:19:40.395Z,15.35
2023-05-09T10:22:51.320Z,15.26
2023-05-09T10:26:03.023Z,15.50
2023-05-09T10:29:10.679Z,15.61
2023-05-09T10:32:20.323Z,15.73
2023-05-09T10:35:26.390Z,15.78
2023-05-09T10:38:45.636Z,15.94
2023-05-09T10:41:52.286Z,16.04
2023-05-09T10:44:58.461Z,16.02
2023-05-09T10:48:05.424Z,16.09
2023-05-09T10:51:05.448Z,16.00
2023-05-09T10:54:11.427Z,16.12
2023-05-09T10:57:17.281Z,16.13
2023-05-09T11:00:23.389Z,16.15
2023-05-09T11:03:28.309Z,16.39
2023-05-09T11:06:59.126Z,16.41
2023-05-09T11:10:24.391Z,16.46
2023-05-09T11:13:31.274Z,16.39
2023-05-09T11:16:37.739Z,16.60
2023-05-09T11:19:53.700Z,16.36
2023-05-09T11:22:59.558Z,16.36
2023-05-09T11:26:04.709Z,16.10
2023-05-09T11:29:10.430Z,16.41
2023-05-09T11:32:22.865Z,16.29
2023-05-09T11:35:34.882Z,16.13
2023-05-09T11:38:40.246Z,16.04
2023-05-09T11:41:46.680Z,16.02
2023-05-09T11:44:56.046Z,15.81
2023-05-09T11:48:04.406Z,15.46
2023-05-09T11:51:12.749Z,15.44
2023-05-09T11:54:21.529Z,15.56
2023-05-09T11:57:26.610Z,15.61
2023-05-09T12:00:33.404Z,15.55
2023-05-09T12:03:38.448Z,15.29
2023-05-09T12:06:37.917Z,15.22
2023-05-09T12:09:50.783Z,15.14
2023-05-09T12:13:03.469Z,15.10
2023-05-09T12:16:15.736Z,14.93
2023-05-09T12:19:22.339Z,15.07
2023-05-09T12:22:29.541Z,15.05
2023-05-09T12:25:30.224Z,14.86
2023-05-09T12:28:38.356Z,14.92
2023-05-09T12:31:44.448Z,14.95
2023-05-09T12:34:55.124Z,14.89
2023-05-09T12:38:12.825Z,14.81
2023-05-09T12:41:35.096Z,14.76
2023-05-09T12:44:39.087Z,14.85
2023-05-09T12:47:47.007Z,14.89
2023-05-09T12:50:46.095Z,14.75
2023-05-09T12:53:55.252Z,14.10
2023-05-09T12:57:02.289Z,14.14
2023-05-09T13:00:11.107Z,14.18
2023-05-09T13:03:17.112Z,14.03
2023-05-09T13:06:28.242Z,13.98
2023-05-09T13:09:26.907Z,14.06
2023-05-09T13:12:21.036Z,13.96
2023-05-09T13:15:28.092Z,13.84
2023-05-09T13:18:34.389Z,13.89
2023-05-09T13:21:39.943Z,13.73
2023-05-09T13:24:46.125Z,13.89
2023-05-09T13:27:52.666Z,14.26
2023-05-09T13:30:58.475Z,14.28
2023-05-09T13:34:04.318Z,14.50
2023-05-09T13:37:10.625Z,14.27
2023-05-09T13:40:16.275Z,14.42
2023-05-09T13:43:22.845Z,14.44
2023-05-09T13:46:28.376Z,14.40
2023-05-09T13:49:35.260Z,14.54
2023-05-09T13:52:40.632Z,14.72
2023-05-09T13:55:46.725Z,14.88
2023-05-09T13:58:55.396Z,15.04
2023-05-09T14:02:00.386Z,15.21
2023-05-09T14:05:08.989Z,15.39
2023-05-09T14:08:14.364Z,15.67
2023-05-09T14:11:20.185Z,15.50
2023-05-09T14:14:26.616Z,15.61
2023-05-09T14:17:32.310Z,15.86
2023-05-09T14:20:39.281Z,15.75
2023-05-09T14:23:45.580Z,16.03
2023-05-09T14:26:52.136Z,16.07
2023-05-09T14:29:57.812Z,15.68
2023-05-09T14:33:04.614Z,14.42
2023-05-09T14:36:13.120Z,14.84
2023-05-09T14:39:19.936Z,14.53
2023-05-09T14:42:20.046Z,14.98
2023-05-09T14:45:26.207Z,15.15
2023-05-09T14:48:32.162Z,15.03
2023-05-09T14:51:38.466Z,14.97
2023-05-09T14:54:44.134Z,15.09
2023-05-09T14:57:49.861Z,15.07
2023-05-09T15:00:50.293Z,15.11
2023-05-09T15:03:55.991Z,15.03
2023-05-09T15:07:03.103Z,14.90
2023-05-09T15:10:10.593Z,14.92
2023-05-09T15:13:17.228Z,14.78
2023-05-09T15:16:23.508Z,14.81
2023-05-09T15:19:29.214Z,14.74
2023-05-09T15:22:34.450Z,14.83
2023-05-09T15:25:39.240Z,14.86
2023-05-09T15:28:44.011Z,14.84
2023-05-09T15:31:50.622Z,14.73
2023-05-09T15:34:55.960Z,14.64
2023-05-09T15:38:01.955Z,14.60
2023-05-09T15:41:07.656Z,14.69
2023-05-09T15:44:14.218Z,14.52
2023-05-09T15:47:19.718Z,14.50
2023-05-09T15:50:19.469Z,14.45
2023-05-09T15:53:12.298Z,14.58
2023-05-09T15:56:16.861Z,14.64
2023-05-09T15:59:22.529Z,14.53
2023-05-09T16:02:29.004Z,14.43
2023-05-09T16:05:34.884Z,14.60
2023-05-09T16:08:41.476Z,14.54
2023-05-09T16:11:48.200Z,14.31
2023-05-09T16:14:47.026Z,14.27
2023-05-09T16:17:39.122Z,14.19
2023-05-09T16:20:44.798Z,14.10
2023-05-09T16:23:50.771Z,14.09
2023-05-09T16:26:58.463Z,14.13
2023-05-09T16:30:04.371Z,14.21
2023-05-09T16:33:10.553Z,14.25
2023-05-09T16:36:16.167Z,14.07
2023-05-09T16:39:21.861Z,14.03
2023-05-09T16:42:27.239Z,14.13
2023-05-09T16:45:32.498Z,14.21
2023-05-09T16:48:38.495Z,14.35
2023-05-09T16:51:44.331Z,14.16
2023-05-09T16:54:50.173Z,14.17
2023-05-09T16:57:56.137Z,14.04
2023-05-09T17:01:01.831Z,13.93
2023-05-09T17:04:08.700Z,13.85
2023-05-09T17:07:14.198Z,13.91
2023-05-09T17:10:19.404Z,13.81
2023-05-09T17:13:25.553Z,13.76
2023-05-09T17:16:32.448Z,13.69
2023-05-09T17:19:39.156Z,13.65
2023-05-09T17:22:44.648Z,13.52
2023-05-09T17:25:49.916Z,13.62
2023-05-09T17:28:56.844Z,13.75
2023-05-09T17:32:05.106Z,13.50
2023-05-09T17:35:11.788Z,13.27
2023-05-09T17:38:17.649Z,13.28
2023-05-09T17:41:23.132Z,13.14
2023-05-09T17:44:29.635Z,13.10
2023-05-09T17:47:36.240Z,13.15
2023-05-09T17:50:42.413Z,13.03
2023-05-09T17:53:48.286Z,13.08
2023-05-09T17:56:56.679Z,13.21
2023-05-09T18:00:01.494Z,13.22
2023-05-09T18:03:08.289Z,13.51
2023-05-09T18:06:15.002Z,13.78
2023-05-09T18:09:20.769Z,13.08
2023-05-09T18:12:26.524Z,12.92
2023-05-09T18:15:33.631Z,12.75
2023-05-09T18:18:39.275Z,12.66
2023-05-09T18:21:45.218Z,12.76
2023-05-09T18:24:51.883Z,12.70
2023-05-09T18:27:58.913Z,12.66
2023-05-09T18:31:06.914Z,12.56
2023-05-09T18:34:13.476Z,12.76
2023-05-09T18:37:19.171Z,12.70
2023-05-09T18:40:25.027Z,12.73
2023-05-09T18:43:30.859Z,12.88
2023-05-09T18:46:37.589Z,13.23
2023-05-09T18:49:44.953Z,13.31
2023-05-09T18:52:52.733Z,13.21
2023-05-09T18:55:52.565Z,13.07
2023-05-09T18:58:58.865Z,12.84
2023-05-09T19:02:05.075Z,12.93
2023-05-09T19:05:13.078Z,12.94
2023-05-09T19:08:18.875Z,12.60
2023-05-09T19:11:24.777Z,12.66
2023-05-09T19:14:30.887Z,12.57
2023-05-09T19:17:37.385Z,12.59
2023-05-09T19:20:39.530Z,12.60
2023-05-09T19:23:34.196Z,12.61
2023-05-09T19:26:32.873Z,12.57
2023-05-09T19:29:39.218Z,12.51
2023-05-09T19:32:45.977Z,12.20
2023-05-09T19:35:51.772Z,12.41
2023-05-09T19:38:57.902Z,11.95
2023-05-09T19:42:02.932Z,12.11
2023-05-09T19:45:08.414Z,12.16
2023-05-09T19:48:13.710Z,12.12
2023-05-09T19:51:20.880Z,11.93
2023-05-09T19:54:26.217Z,11.99
2023-05-09T19:57:31.817Z,11.91
2023-05-09T20:00:38.431Z,12.07
2023-05-09T20:03:43.576Z,12.07
2023-05-09T20:06:50.313Z,11.68
2023-05-09T20:09:57.961Z,11.72
2023-05-09T20:13:05.960Z,11.83
2023-05-09T20:16:12.895Z,12.00
2023-05-09T20:19:20.744Z,11.98
2023-05-09T20:22:25.560Z,11.65
2023-05-09T20:25:30.985Z,11.81
2023-05-09T20:28:36.235Z,11.77
2023-05-09T20:31:43.346Z,11.97
2023-05-09T20:34:50.042Z,11.91
2023-05-09T20:37:56.546Z,11.99
2023-05-09T20:41:02.918Z,11.86
2023-05-09T20:44:10.805Z,11.95
2023-05-09T20:47:16.299Z,11.63
2023-05-09T20:50:22.314Z,11.88
2023-05-09T20:53:27.661Z,11.85
2023-05-09T20:56:34.870Z,11.85
2023-05-09T20:59:41.083Z,12.03
2023-05-09T21:02:47.561Z,11.91
2023-05-09T21:05:54.110Z,11.86
2023-05-09T21:08:59.749Z,11.99
2023-05-09T21:12:04.634Z,11.98
2023-05-09T21:15:10.589Z,11.90
2023-05-09T21:18:15.939Z,11.99
2023-05-09T21:21:21.573Z,11.90
2023-05-09T21:24:26.873Z,11.65
2023-05-09T21:27:32.641Z,11.75
2023-05-09T21:30:38.695Z,11.57
2023-05-09T21:33:44.001Z,11.61
2023-05-09T21:36:48.913Z,11.18
2023-05-09T21:39:54.606Z,11.65
2023-05-09T21:43:01.804Z,11.90
2023-05-09T21:46:08.078Z,11.58
2023-05-09T21:49:14.966Z,11.79
2023-05-09T21:52:20.501Z,11.77
2023-05-09T21:55:26.007Z,11.94
2023-05-09T21:58:31.837Z,10.96
2023-05-09T22:01:38.194Z,11.24
2023-05-09T22:04:43.058Z,11.26
2023-05-09T22:07:41.895Z,11.14
2023-05-09T22:10:47.377Z,11.05
2023-05-09T22:13:53.093Z,10.86
2023-05-09T22:16:58.051Z,10.73
2023-05-09T22:20:03.632Z,10.17
2023-05-09T22:23:09.181Z,10.08
2023-05-09T22:26:14.640Z,9.85
2023-05-09T22:29:21.480Z,9.85
2023-05-09T22:32:28.456Z,10.18
2023-05-09T22:35:34.022Z,9.89
2023-05-09T22:38:40.085Z,9.95
2023-05-09T22:41:46.865Z,9.93
2023-05-09T22:44:52.824Z,10.05
2023-05-09T22:47:58.654Z,9.81
2023-05-09T22:51:04.075Z,9.75
2023-05-09T22:54:10.445Z,9.76
2023-05-09T22:57:16.683Z,9.79
2023-05-09T23:00:23.357Z,9.88
2023-05-09T23:03:30.259Z,9.89
2023-05-09T23:06:36.635Z,9.80
2023-05-09T23:09:41.835Z,9.70
2023-05-09T23:12:46.887Z,9.76
2023-05-09T23:15:52.361Z,9.60
2023-05-09T23:18:58.184Z,9.64
2023-05-09T23:22:05.685Z,9.67
2023-05-09T23:25:11.160Z,9.50
2023-05-09T23:28:16.138Z,9.40
2023-05-09T23:31:22.131Z,9.31
2023-05-09T23:34:27.046Z,9.28
2023-05-09T23:37:31.918Z,9.11
2023-05-09T23:40:37.536Z,9.11
2023-05-09T23:43:43.568Z,9.08
2023-05-09T23:46:49.051Z,9.12
2023-05-09T23:49:54.791Z,9.19
2023-05-09T23:53:00.265Z,9.11
2023-05-09T23:56:05.547Z,9.25
2023-05-09T23:59:04.308Z,9.37
